Airfield :
LOGIN :

Register | Disclaimer

   EN    FR    IT 

 










Legend :    VFR   Marginal VFR   IFR   Intensive IFR   Very Intensive IFR
Visi :
Ceiling :
>= 8 km
>= 3000ft
5 to 8 km
1000 to 3000 ft
1500m to 5 km
500 to 1000 ft
800 to 1500m
200 to 500 ft
< 800m
< 200 ft
Symbols :   Thunderstorms  Fog  Heavy snow  Heavy precipitations  Wind > 20 kt
SIGMETs :     Misc.  Thunderstorms  Icing  Turbulence  Mountain Waves  Volcanic Ashes







- Airport Elevation : 38 ft
- IATA code : BOH
- Download approach charts


EGHH - Bournemouth

CURRENT METAR :
  • 241320Z 16007KT 9999 FEW018 SCT025 17/15 Q1017

EXPIRED METARs :
  • 241250Z 16010KT 9999 FEW015 18/14 Q1017
  • 241220Z 16010KT 9999 FEW015 18/14 Q1017
  • 241150Z 14009KT 120V200 9999 FEW015 19/15 Q1018
  • 241120Z 14010KT 110V180 9999 FEW015 18/15 Q1017
  • 241050Z 16008KT 110V180 9999 SCT015 18/14 Q1017

TAF TAF EGHH
Valid from the 24 at 12:00 until the 24 at 21:00 UTC


241106Z 2412/2421 11009KT 9999 FEW040
TEMPO 2412/2421 9000 -RA BKN014
PROB30
TEMPO 2414/2421 RA BKN009
ATIS : +44 1202 364 151
Met : +44 1202 364 158 (TAF)
No reported NOTAMs for that airfield.



MET'MAP, your aeronautical weather chart ! - Copyright ORBIFLY December 2007 - Disclaimer

ORBIFLY MET'MAP TEAM :

Programming & Development : Alexandra Zaïnal
Concept & Development : Baudouin d'Aumeries
Co-Development & Prog : Marc-Olivier Méhu
Technical & hardware support : Manuel Goepfert

Contact : metmap@orbifly.com




SOURCES & CREDITS :

   NOAA